createdAt,value
2023-02-15T00:00:11.019Z,23.40
2023-02-15T00:02:39.780Z,23.65
2023-02-15T00:05:08.075Z,26.00
2023-02-15T00:07:35.518Z,24.02
2023-02-15T00:10:05.593Z,23.33
2023-02-15T00:12:33.139Z,23.98
2023-02-15T00:15:00.503Z,24.83
2023-02-15T00:17:29.679Z,23.58
2023-02-15T00:19:57.393Z,23.67
2023-02-15T00:22:25.618Z,19.90
2023-02-15T00:24:52.929Z,23.40
2023-02-15T00:27:20.204Z,20.95
2023-02-15T00:29:48.265Z,21.98
2023-02-15T00:32:15.576Z,21.52
2023-02-15T00:34:43.744Z,21.58
2023-02-15T00:37:10.940Z,20.58
2023-02-15T00:39:38.421Z,20.00
2023-02-15T00:42:07.575Z,23.15
2023-02-15T00:44:35.219Z,22.00
2023-02-15T00:47:02.436Z,21.67
2023-02-15T00:49:29.629Z,23.95
2023-02-15T00:51:56.831Z,22.33
2023-02-15T00:54:24.079Z,22.05
2023-02-15T00:56:51.428Z,20.52
2023-02-15T00:59:18.719Z,23.48
2023-02-15T01:01:46.087Z,22.40
2023-02-15T01:04:13.478Z,23.27
2023-02-15T01:06:40.599Z,24.52
2023-02-15T01:09:07.728Z,23.38
2023-02-15T01:11:34.978Z,24.00
2023-02-15T01:14:03.523Z,23.80
2023-02-15T01:16:30.772Z,23.60
2023-02-15T01:18:59.644Z,22.20
2023-02-15T01:21:27.050Z,20.13
2023-02-15T01:23:54.675Z,23.13
2023-02-15T01:26:21.867Z,22.35
2023-02-15T01:28:49.034Z,24.23
2023-02-15T01:31:20.108Z,24.65
2023-02-15T01:33:48.662Z,21.98
2023-02-15T01:36:17.667Z,20.75
2023-02-15T01:38:45.368Z,24.80
2023-02-15T01:41:23.394Z,22.00
2023-02-15T01:44:00.659Z,21.65
2023-02-15T01:46:41.283Z,19.67
2023-02-15T01:49:17.056Z,22.25
2023-02-15T01:51:47.976Z,20.05
2023-02-15T01:54:34.340Z,20.02
2023-02-15T01:57:09.595Z,21.35
2023-02-15T01:59:40.212Z,19.00
2023-02-15T02:02:10.100Z,18.60
2023-02-15T02:04:50.501Z,20.40
2023-02-15T02:07:27.552Z,21.70
2023-02-15T02:09:55.205Z,19.92
2023-02-15T02:14:53.336Z,21.08
2023-02-15T02:17:57.165Z,19.20
2023-02-15T02:21:13.363Z,20.60
2023-02-15T02:24:31.111Z,20.88
2023-02-15T02:27:26.600Z,20.85
2023-02-15T02:30:36.453Z,21.33
2023-02-15T02:33:18.735Z,23.95
2023-02-15T02:35:57.072Z,20.55
2023-02-15T02:38:55.383Z,23.42
2023-02-15T02:42:04.928Z,24.58
2023-02-15T02:44:43.946Z,25.00
2023-02-15T02:47:19.958Z,24.52
2023-02-15T02:49:47.115Z,24.27
2023-02-15T02:52:37.820Z,24.45
2023-02-15T02:55:18.518Z,22.52
2023-02-15T02:58:18.301Z,21.85
2023-02-15T03:03:27.647Z,22.55
2023-02-15T03:05:59.787Z,21.38
2023-02-15T03:08:37.374Z,19.83
2023-02-15T03:11:05.227Z,21.95
2023-02-15T03:13:33.458Z,19.73
2023-02-15T03:16:20.653Z,21.05
2023-02-15T03:18:58.140Z,21.48
2023-02-15T03:22:04.157Z,22.80
2023-02-15T03:24:35.777Z,22.95
2023-02-15T03:27:17.871Z,21.38
2023-02-15T03:29:49.283Z,24.35
2023-02-15T03:32:17.559Z,22.27
2023-02-15T03:34:45.265Z,22.15
2023-02-15T03:37:25.025Z,23.60
2023-02-15T03:40:42.072Z,25.15
2023-02-15T03:43:41.834Z,25.38
2023-02-15T03:46:28.331Z,24.40
2023-02-15T03:49:17.922Z,24.52
2023-02-15T03:51:48.784Z,20.48
2023-02-15T03:54:40.709Z,21.42
2023-02-15T03:57:35.164Z,23.17
2023-02-15T04:00:35.718Z,20.35
2023-02-15T04:03:05.571Z,23.67
2023-02-15T04:05:32.832Z,23.77
2023-02-15T04:08:00.124Z,23.20
2023-02-15T04:10:45.980Z,22.05
2023-02-15T04:13:13.206Z,24.02
2023-02-15T04:16:12.870Z,23.85
2023-02-15T04:19:02.224Z,25.00
2023-02-15T04:21:49.254Z,23.25
2023-02-15T04:24:36.166Z,25.98
2023-02-15T04:27:05.041Z,26.27
2023-02-15T04:29:32.846Z,23.15
2023-02-15T04:32:02.172Z,33.38
2023-02-15T04:34:29.448Z,33.13
2023-02-15T04:36:56.839Z,28.23
2023-02-15T04:39:24.108Z,29.90
2023-02-15T04:41:51.373Z,27.08
2023-02-15T04:44:18.529Z,26.08
2023-02-15T04:46:45.637Z,24.10
2023-02-15T04:49:12.844Z,27.90
2023-02-15T04:51:40.155Z,26.23
2023-02-15T04:54:07.377Z,30.88
2023-02-15T04:56:35.366Z,31.00
2023-02-15T04:59:02.470Z,25.58
2023-02-15T05:01:29.747Z,32.63
2023-02-15T05:03:57.227Z,31.25
2023-02-15T05:06:24.472Z,31.92
2023-02-15T05:08:51.752Z,36.65
2023-02-15T05:11:18.983Z,37.38
2023-02-15T05:13:46.318Z,38.78
2023-02-15T05:16:13.591Z,35.95
2023-02-15T05:18:40.812Z,35.83
2023-02-15T05:21:08.175Z,38.25
2023-02-15T05:23:35.826Z,43.55
2023-02-15T05:26:21.952Z,41.00
2023-02-15T05:28:49.310Z,40.88
2023-02-15T05:31:19.979Z,42.80
2023-02-15T05:33:47.827Z,46.08
2023-02-15T05:36:14.978Z,46.08
2023-02-15T05:38:42.221Z,40.78
2023-02-15T05:41:11.553Z,42.28
2023-02-15T05:43:39.481Z,44.80
2023-02-15T05:46:07.919Z,36.50
2023-02-15T05:48:35.616Z,30.35
2023-02-15T05:51:13.390Z,30.98
2023-02-15T05:53:41.279Z,33.90
2023-02-15T05:56:11.062Z,29.25
2023-02-15T05:58:41.213Z,26.42
2023-02-15T06:01:11.060Z,27.67
2023-02-15T06:03:38.778Z,28.75
2023-02-15T06:06:07.108Z,36.00
2023-02-15T06:08:36.806Z,36.15
2023-02-15T06:11:05.478Z,36.55
2023-02-15T06:13:35.933Z,39.40
2023-02-15T06:16:04.847Z,37.83
2023-02-15T06:18:32.338Z,36.40
2023-02-15T06:20:59.511Z,36.33
2023-02-15T06:23:26.661Z,34.28
2023-02-15T06:25:54.428Z,30.52
2023-02-15T06:28:21.696Z,34.97
2023-02-15T06:30:48.960Z,39.08
2023-02-15T06:33:16.326Z,42.20
2023-02-15T06:35:43.696Z,38.85
2023-02-15T06:38:11.012Z,43.28
2023-02-15T06:40:38.328Z,44.05
2023-02-15T06:43:05.458Z,45.55
2023-02-15T06:45:32.642Z,46.30
2023-02-15T06:47:59.906Z,45.47
2023-02-15T06:50:27.157Z,44.40
2023-02-15T06:52:59.268Z,44.05
2023-02-15T06:55:27.011Z,42.58
2023-02-15T06:57:54.291Z,42.60
2023-02-15T07:00:23.467Z,36.55
2023-02-15T07:02:58.951Z,40.33
2023-02-15T07:05:31.195Z,41.50
2023-02-15T07:07:59.751Z,39.40
2023-02-15T07:10:28.218Z,34.03
2023-02-15T07:12:55.948Z,31.95
2023-02-15T07:15:23.470Z,30.60
2023-02-15T07:17:51.165Z,44.33
2023-02-15T07:20:22.020Z,39.55
2023-02-15T07:22:50.802Z,55.08
2023-02-15T07:25:18.826Z,47.28
2023-02-15T07:27:46.231Z,34.35
2023-02-15T07:30:16.929Z,35.75
2023-02-15T07:33:05.490Z,30.23
2023-02-15T07:35:34.306Z,37.83
2023-02-15T07:38:02.053Z,42.15
2023-02-15T07:40:29.274Z,38.72
2023-02-15T07:42:59.335Z,46.78
2023-02-15T07:45:27.291Z,34.80
2023-02-15T07:47:54.687Z,30.05
2023-02-15T07:50:21.883Z,39.88
2023-02-15T07:52:49.180Z,40.28
2023-02-15T07:55:16.522Z,41.47
2023-02-15T07:57:45.530Z,36.25
2023-02-15T08:00:16.033Z,32.80
2023-02-15T08:02:49.273Z,36.25
2023-02-15T08:05:18.640Z,34.00
2023-02-15T08:07:45.773Z,40.28
2023-02-15T08:10:33.193Z,32.13
2023-02-15T08:13:00.464Z,32.72
2023-02-15T08:15:27.692Z,35.08
2023-02-15T08:17:55.073Z,35.75
2023-02-15T08:20:22.286Z,28.30
2023-02-15T08:22:49.633Z,28.10
2023-02-15T08:25:16.998Z,22.33
2023-02-15T08:27:44.266Z,20.42
2023-02-15T08:30:14.496Z,19.77
2023-02-15T08:32:41.806Z,20.52
2023-02-15T08:35:09.253Z,27.13
2023-02-15T08:37:36.608Z,18.95
2023-02-15T08:40:05.631Z,19.15
2023-02-15T08:42:34.433Z,23.05
2023-02-15T08:45:01.664Z,27.83
2023-02-15T08:47:28.969Z,24.13
2023-02-15T08:49:56.375Z,22.58
2023-02-15T08:52:23.644Z,16.77
2023-02-15T08:54:50.795Z,15.05
2023-02-15T08:57:17.932Z,13.50
2023-02-15T08:59:45.122Z,14.82
2023-02-15T09:02:12.487Z,15.55
2023-02-15T09:04:39.677Z,20.63
2023-02-15T09:07:07.196Z,18.98
2023-02-15T09:09:34.344Z,18.80
2023-02-15T09:12:01.572Z,15.88
2023-02-15T09:14:28.895Z,16.48
2023-02-15T09:16:56.220Z,16.38
2023-02-15T09:19:24.737Z,19.20
2023-02-15T09:21:52.415Z,22.35
2023-02-15T09:24:19.814Z,16.92
2023-02-15T09:26:48.844Z,15.77
2023-02-15T09:29:17.838Z,15.52
2023-02-15T09:31:49.107Z,18.98
2023-02-15T09:34:20.258Z,18.70
2023-02-15T09:36:48.326Z,14.98
2023-02-15T09:39:21.432Z,16.88
2023-02-15T09:42:00.637Z,15.15
2023-02-15T09:44:33.815Z,15.65
2023-02-15T09:47:25.389Z,18.27
2023-02-15T09:50:38.079Z,22.17
2023-02-15T09:53:51.953Z,25.05
2023-02-15T09:56:37.823Z,17.13
2023-02-15T09:59:31.571Z,19.50
2023-02-15T10:02:31.006Z,18.00
2023-02-15T10:08:41.244Z,17.85
2023-02-15T10:11:40.758Z,14.45
2023-02-15T10:17:36.378Z,15.98
2023-02-15T10:20:22.435Z,12.05
2023-02-15T10:23:04.524Z,12.70
2023-02-15T10:25:47.773Z,12.80
2023-02-15T10:28:48.490Z,11.98
2023-02-15T10:31:43.485Z,16.38
2023-02-15T10:34:37.768Z,14.05
2023-02-15T10:37:31.779Z,14.38
2023-02-15T10:40:20.026Z,16.67
2023-02-15T10:43:13.637Z,16.95
2023-02-15T10:46:04.805Z,14.40
2023-02-15T10:49:12.994Z,16.27
2023-02-15T10:52:11.025Z,15.18
2023-02-15T10:54:58.898Z,12.30
2023-02-15T10:58:05.616Z,13.52
2023-02-15T11:00:44.642Z,11.27
2023-02-15T11:03:42.852Z,14.07
2023-02-15T11:06:14.304Z,15.15
2023-02-15T11:09:10.375Z,11.85
2023-02-15T11:11:44.281Z,11.68
2023-02-15T11:14:44.352Z,12.35
2023-02-15T11:17:18.000Z,13.48
2023-02-15T11:20:01.013Z,13.18
2023-02-15T11:22:31.131Z,13.20
2023-02-15T11:25:00.960Z,11.88
2023-02-15T11:27:35.780Z,12.43
2023-02-15T11:30:20.368Z,12.80
2023-02-15T11:32:52.673Z,13.25
2023-02-15T11:35:49.637Z,13.23
2023-02-15T11:38:24.773Z,14.70
2023-02-15T11:41:09.886Z,11.90
2023-02-15T11:43:51.897Z,11.55
2023-02-15T11:46:21.910Z,13.48
2023-02-15T11:48:49.471Z,14.18
2023-02-15T11:51:23.664Z,13.63
2023-02-15T11:53:52.242Z,14.35
2023-02-15T11:56:25.228Z,12.73
2023-02-15T11:59:13.235Z,13.15
2023-02-15T12:01:45.363Z,9.52
2023-02-15T12:04:39.945Z,14.63
2023-02-15T12:07:45.724Z,11.85
2023-02-15T12:10:34.966Z,10.48
2023-02-15T12:13:18.833Z,11.15
2023-02-15T12:15:52.752Z,11.23
2023-02-15T12:18:41.691Z,11.32
2023-02-15T12:21:16.010Z,13.30
2023-02-15T12:23:53.207Z,11.95
2023-02-15T12:26:34.536Z,10.65
2023-02-15T12:29:16.786Z,12.95
2023-02-15T12:31:52.057Z,11.25
2023-02-15T12:34:19.369Z,12.70
2023-02-15T12:36:54.699Z,12.52
2023-02-15T12:39:32.645Z,11.43
2023-02-15T12:42:14.334Z,11.57
2023-02-15T12:45:19.643Z,12.02
2023-02-15T12:47:46.904Z,12.50
2023-02-15T12:50:23.339Z,20.50
2023-02-15T12:52:52.097Z,12.32
2023-02-15T12:55:27.663Z,10.50
2023-02-15T12:58:17.802Z,13.02
2023-02-15T13:00:46.139Z,16.25
2023-02-15T13:03:24.307Z,13.00
2023-02-15T13:05:55.180Z,12.50
2023-02-15T13:08:36.821Z,14.90
2023-02-15T13:11:12.079Z,14.40
2023-02-15T13:13:58.280Z,12.38
2023-02-15T13:16:39.550Z,14.35
2023-02-15T13:19:28.890Z,11.98
2023-02-15T13:21:58.406Z,11.07
2023-02-15T13:24:39.672Z,11.15
2023-02-15T13:27:16.822Z,15.30
2023-02-15T13:29:50.007Z,13.05
2023-02-15T13:32:36.653Z,12.32
2023-02-15T13:35:09.840Z,13.52
2023-02-15T13:38:14.004Z,13.32
2023-02-15T13:41:16.308Z,13.38
2023-02-15T13:44:07.700Z,12.02
2023-02-15T13:46:50.562Z,12.35
2023-02-15T13:49:41.279Z,9.13
2023-02-15T13:52:30.254Z,11.35
2023-02-15T13:55:21.405Z,10.57
2023-02-15T13:58:21.048Z,10.45
2023-02-15T14:01:19.883Z,9.18
2023-02-15T14:04:02.640Z,10.13
2023-02-15T14:07:09.670Z,9.93
2023-02-15T14:09:58.534Z,11.25
2023-02-15T14:12:45.588Z,9.88
2023-02-15T14:15:15.655Z,8.57
2023-02-15T14:18:16.844Z,14.15
2023-02-15T14:21:37.964Z,13.93
2023-02-15T14:24:35.553Z,12.30
2023-02-15T14:27:39.009Z,13.32
2023-02-15T14:30:20.714Z,10.88
2023-02-15T14:33:08.341Z,12.05
2023-02-15T14:35:37.626Z,13.32
2023-02-15T14:38:36.602Z,14.75
2023-02-15T14:41:35.894Z,13.13
2023-02-15T14:44:27.212Z,14.05
2023-02-15T14:47:10.621Z,11.32
2023-02-15T14:49:40.410Z,16.27
2023-02-15T14:52:11.859Z,13.32
2023-02-15T14:54:38.861Z,14.18
2023-02-15T14:57:06.712Z,11.57
2023-02-15T15:00:00.617Z,13.30
2023-02-15T15:02:52.151Z,12.50
2023-02-15T15:05:21.405Z,12.23
2023-02-15T15:07:50.694Z,13.43
2023-02-15T15:10:17.948Z,17.02
2023-02-15T15:12:59.068Z,15.07
2023-02-15T15:15:31.862Z,13.90
2023-02-15T15:18:30.190Z,21.10
2023-02-15T15:20:57.498Z,14.85
2023-02-15T15:23:42.653Z,25.08
2023-02-15T15:26:28.988Z,25.05
2023-02-15T15:29:00.227Z,24.27
2023-02-15T15:31:54.574Z,18.25
2023-02-15T15:34:43.353Z,17.05
2023-02-15T15:37:23.042Z,80.07
2023-02-15T15:40:35.026Z,22.83
2023-02-15T15:43:34.181Z,15.85
2023-02-15T15:46:16.962Z,19.48
2023-02-15T15:48:44.344Z,25.73
2023-02-15T15:51:29.353Z,20.02
2023-02-15T15:53:57.294Z,21.48
2023-02-15T15:56:31.831Z,23.13
2023-02-15T15:59:05.654Z,30.55
2023-02-15T16:01:42.749Z,24.23
2023-02-15T16:04:34.160Z,22.85
2023-02-15T16:07:19.920Z,20.25
2023-02-15T16:10:02.329Z,24.92
2023-02-15T16:12:33.659Z,23.65
2023-02-15T16:15:17.236Z,26.55
2023-02-15T16:17:48.863Z,34.35
2023-02-15T16:20:19.025Z,34.88
2023-02-15T16:23:10.882Z,43.22
2023-02-15T16:25:48.750Z,44.55
2023-02-15T16:28:18.956Z,42.78
2023-02-15T16:30:46.416Z,41.45
2023-02-15T16:33:16.421Z,41.78
2023-02-15T16:35:59.454Z,38.47
2023-02-15T16:39:19.671Z,36.75
2023-02-15T16:41:49.408Z,34.80
2023-02-15T16:44:21.125Z,38.70
2023-02-15T16:46:52.529Z,36.03
2023-02-15T16:49:29.161Z,35.45
2023-02-15T16:52:05.793Z,51.38
2023-02-15T16:54:33.998Z,41.67
2023-02-15T16:57:04.270Z,34.42
2023-02-15T16:59:45.678Z,33.42
2023-02-15T17:02:49.293Z,39.70
2023-02-15T17:07:55.515Z,34.95
2023-02-15T17:10:46.035Z,32.30
2023-02-15T17:13:18.215Z,31.02
2023-02-15T17:16:01.013Z,34.80
2023-02-15T17:18:38.821Z,26.77
2023-02-15T17:21:18.818Z,22.85
2023-02-15T17:23:52.229Z,26.00
2023-02-15T17:26:30.855Z,35.53
2023-02-15T17:29:20.898Z,36.47
2023-02-15T17:31:51.915Z,33.22
2023-02-15T17:34:49.118Z,24.85
2023-02-15T17:37:34.411Z,27.00
2023-02-15T17:40:20.891Z,28.10
2023-02-15T17:42:48.210Z,30.70
2023-02-15T17:45:16.429Z,33.25
2023-02-15T17:47:44.336Z,29.92
2023-02-15T17:50:25.647Z,32.70
2023-02-15T17:52:55.631Z,38.92
2023-02-15T17:55:40.569Z,42.00
2023-02-15T17:58:11.689Z,55.88
2023-02-15T18:01:27.644Z,65.60
2023-02-15T18:04:13.797Z,47.90
2023-02-15T18:07:01.903Z,46.65
2023-02-15T18:09:47.908Z,54.00
2023-02-15T18:13:18.724Z,61.42
2023-02-15T18:15:45.946Z,55.58
2023-02-15T18:18:14.034Z,63.75
2023-02-15T18:20:43.022Z,84.97
2023-02-15T18:23:14.496Z,80.30
2023-02-15T18:26:16.334Z,70.43
2023-02-15T18:28:43.513Z,50.47
2023-02-15T18:31:12.165Z,38.42
2023-02-15T18:33:47.696Z,45.75
2023-02-15T18:36:25.489Z,59.67
2023-02-15T18:38:53.614Z,67.95
2023-02-15T18:41:22.310Z,55.92
2023-02-15T18:43:50.869Z,51.53
2023-02-15T18:46:19.136Z,43.22
2023-02-15T18:48:46.405Z,53.08
2023-02-15T18:51:19.675Z,54.53
2023-02-15T18:54:02.282Z,60.33
2023-02-15T18:57:02.447Z,71.80
2023-02-15T18:59:30.816Z,55.42
2023-02-15T19:02:03.080Z,62.30
2023-02-15T19:05:03.210Z,66.22
2023-02-15T19:07:31.961Z,64.40
2023-02-15T19:10:04.066Z,60.58
2023-02-15T19:12:32.411Z,55.28
2023-02-15T19:15:01.582Z,55.95
2023-02-15T19:17:29.719Z,53.30
2023-02-15T19:20:38.196Z,47.03
2023-02-15T19:23:49.533Z,39.72
2023-02-15T19:26:16.727Z,52.63
2023-02-15T19:29:48.666Z,42.10
2023-02-15T19:32:48.797Z,43.03
2023-02-15T19:35:21.774Z,44.90
2023-02-15T19:38:31.920Z,45.58
2023-02-15T19:41:15.496Z,58.30
2023-02-15T19:43:43.618Z,61.67
2023-02-15T19:46:19.369Z,62.38
2023-02-15T19:48:50.801Z,60.53
2023-02-15T19:51:19.718Z,63.28
2023-02-15T19:53:48.743Z,65.70
2023-02-15T19:56:23.761Z,77.03
2023-02-15T19:58:58.127Z,76.45
2023-02-15T20:01:25.611Z,79.32
2023-02-15T20:03:54.236Z,83.68
2023-02-15T20:06:21.764Z,88.47
2023-02-15T20:08:51.887Z,81.10
2023-02-15T20:11:22.949Z,72.07
2023-02-15T20:13:51.639Z,71.00
2023-02-15T20:16:19.593Z,62.15
2023-02-15T20:18:47.036Z,60.00
2023-02-15T20:21:16.062Z,56.70
2023-02-15T20:23:43.560Z,58.17
2023-02-15T20:26:17.690Z,68.07
2023-02-15T20:28:46.337Z,62.00
2023-02-15T20:31:16.592Z,60.72
2023-02-15T20:33:44.215Z,57.70
2023-02-15T20:36:17.670Z,53.28
2023-02-15T20:38:46.024Z,53.22
2023-02-15T20:41:35.653Z,58.70
2023-02-15T20:44:28.678Z,56.75
2023-02-15T20:46:58.713Z,58.45
2023-02-15T20:49:27.341Z,57.97
2023-02-15T20:51:56.388Z,55.15
2023-02-15T20:54:28.216Z,53.72
2023-02-15T20:56:58.219Z,54.85
2023-02-15T20:59:30.124Z,51.90
2023-02-15T21:02:15.197Z,49.75
2023-02-15T21:04:42.408Z,46.58
2023-02-15T21:07:21.118Z,48.97
2023-02-15T21:09:48.521Z,44.72
2023-02-15T21:12:18.834Z,49.08
2023-02-15T21:14:46.314Z,46.92
2023-02-15T21:17:16.183Z,46.47
2023-02-15T21:19:43.842Z,48.30
2023-02-15T21:22:15.086Z,58.75
2023-02-15T21:24:51.029Z,59.10
2023-02-15T21:27:18.602Z,55.20
2023-02-15T21:29:45.759Z,52.88
2023-02-15T21:32:13.050Z,52.35
2023-02-15T21:34:40.382Z,58.05
2023-02-15T21:37:31.052Z,62.05
2023-02-15T21:39:58.349Z,57.40
2023-02-15T21:42:47.032Z,58.20
2023-02-15T21:45:35.245Z,49.60
2023-02-15T21:48:02.959Z,56.75
2023-02-15T21:50:49.039Z,53.83
2023-02-15T21:53:24.639Z,55.25
2023-02-15T21:55:57.339Z,55.05
2023-02-15T21:58:28.112Z,57.00
2023-02-15T22:00:57.440Z,51.67
2023-02-15T22:03:36.545Z,52.70
2023-02-15T22:06:04.820Z,50.55
2023-02-15T22:08:32.862Z,50.53
2023-02-15T22:11:00.089Z,57.13
2023-02-15T22:13:33.400Z,57.63
2023-02-15T22:16:01.434Z,54.78
2023-02-15T22:18:33.785Z,54.40
2023-02-15T22:21:03.982Z,48.42
2023-02-15T22:23:31.600Z,48.63
2023-02-15T22:26:04.881Z,50.35
2023-02-15T22:28:42.708Z,43.72
2023-02-15T22:31:18.065Z,45.42
2023-02-15T22:33:45.529Z,46.92
2023-02-15T22:36:30.076Z,43.13
2023-02-15T22:38:57.879Z,48.13
2023-02-15T22:41:30.912Z,43.75
2023-02-15T22:43:58.447Z,54.45
2023-02-15T22:46:26.555Z,55.28
2023-02-15T22:48:53.918Z,51.80
2023-02-15T22:51:24.131Z,50.83
2023-02-15T22:53:52.763Z,45.13
2023-02-15T22:56:35.133Z,45.70
2023-02-15T22:59:08.225Z,40.22
2023-02-15T23:01:37.590Z,40.88
2023-02-15T23:04:05.168Z,39.92
2023-02-15T23:06:33.770Z,40.70
2023-02-15T23:09:00.947Z,43.45
2023-02-15T23:11:28.505Z,41.60
2023-02-15T23:13:55.776Z,38.08
2023-02-15T23:16:23.107Z,42.28
2023-02-15T23:18:50.517Z,44.33
2023-02-15T23:21:27.399Z,46.33
2023-02-15T23:24:00.704Z,39.40
2023-02-15T23:26:31.084Z,41.67
2023-02-15T23:29:01.008Z,38.63
2023-02-15T23:31:34.609Z,38.60
2023-02-15T23:34:20.442Z,40.17
2023-02-15T23:36:48.293Z,39.70
2023-02-15T23:39:44.264Z,37.40
2023-02-15T23:42:17.916Z,40.35
2023-02-15T23:44:46.666Z,41.33
2023-02-15T23:47:52.453Z,42.78
2023-02-15T23:50:29.323Z,40.28
2023-02-15T23:52:57.670Z,35.67
2023-02-15T23:55:44.369Z,35.22
2023-02-15T23:58:18.573Z,34.88
